| time (UTC) | temp C | wind direction | speed KPH | gust KPH | rain 1hr cm | rain 24hr cm | rain mn cm | humidity % | barometer mb |
| 20260510120005 | 19 | 215 | 3.2 | 8.0 | 0.00 | 0.03 | 0.00 | 93 | 1011.5 |
| 20260510114503 | 18 | 191 | 1.6 | 6.4 | 0.00 | 0.03 | 0.00 | 93 | 1011.3 |
| 20260510113004 | 19 | 225 | 4.8 | 9.7 | 0.00 | 0.03 | 0.00 | 93 | 1011.3 |
| 20260510111502 | 19 | 214 | 3.2 | 6.4 | 0.00 | 0.03 | 0.00 | 93 | 1011.3 |
| 20260510110100 | 19 | 199 | 3.2 | 8.0 | 0.00 | 0.03 | 0.00 | 93 | 1011.0 |
| 20260510104604 | 19 | 229 | 4.8 | 11.3 | 0.00 | 0.03 | 0.00 | 92 | 1010.9 |
| 20260510103105 | 19 | 235 | 3.2 | 8.0 | 0.00 | 0.03 | 0.00 | 93 | 1010.8 |
| 20260510101557 | 19 | 200 | 4.8 | 11.3 | 0.00 | 0.03 | 0.00 | 93 | 1010.9 |
| 20260510100057 | 19 | 195 | 4.8 | 9.7 | 0.00 | 0.05 | 0.00 | 92 | 1010.9 |
| 20260510094555 | 19 | 197 | 4.8 | 9.7 | 0.00 | 0.05 | 0.00 | 92 | 1010.8 |
| 20260510093109 | 19 | 162 | 4.8 | 9.7 | 0.00 | 0.05 | 0.00 | 91 | 1010.8 |
| 20260510091551 | 20 | 174 | 4.8 | 9.7 | 0.00 | 0.05 | 0.00 | 90 | 1011.0 |
| 20260510090057 | 20 | 180 | 4.8 | 8.0 | 0.00 | 0.05 | 0.00 | 90 | 1010.8 |
| 20260510084549 | 20 | 196 | 3.2 | 8.0 | 0.00 | 0.05 | 0.00 | 89 | 1011.0 |
| 20260510083101 | 20 | 205 | 3.2 | 8.0 | 0.00 | 0.05 | 0.00 | 88 | 1011.0 |
| 20260510081600 | 20 | 169 | 3.2 | 8.0 | 0.00 | 0.05 | 0.00 | 87 | 1011.1 |
| 20260510080050 | 20 | 186 | 3.2 | 9.7 | 0.00 | 0.05 | 0.00 | 87 | 1011.1 |
| 20260510074541 | 20 | 207 | 6.4 | 11.3 | 0.00 | 0.05 | 0.00 | 86 | 1011.1 |
| 20260510073040 | 21 | 162 | 3.2 | 8.0 | 0.00 | 0.05 | 0.00 | 85 | 1011.2 |
| 20260510071541 | 21 | 175 | 4.8 | 11.3 | 0.00 | 0.05 | 0.00 | 84 | 1011.2 |
| 20260510070037 | 21 | 155 | 6.4 | 11.3 | 0.00 | 0.05 | 0.00 | 84 | 1011.2 |
| 20260510064535 | 21 | 125 | 3.2 | 8.0 | 0.00 | 0.05 | 0.00 | 83 | 1011.0 |
| 20260510063031 | 22 | 121 | 4.8 | 9.7 | 0.00 | 0.05 | 0.00 | 82 | 1011.0 |
| 20260510061530 | 22 | 182 | 6.4 | 11.3 | 0.00 | 0.05 | 0.00 | 82 | 1011.0 |
| 20260510060028 | 22 | 191 | 4.8 | 8.0 | 0.00 | 0.05 | 0.00 | 81 | 1010.9 |
| 20260510054525 | 22 | 167 | 4.8 | 9.7 | 0.00 | 0.05 | 0.00 | 80 | 1010.9 |
| 20260510053023 | 22 | 154 | 4.8 | 14.5 | 0.00 | 0.05 | 0.00 | 79 | 1011.0 |
| 20260510051521 | 23 | 120 | 3.2 | 11.3 | 0.00 | 0.05 | 0.00 | 80 | 1010.9 |
| 20260510050018 | 23 | 148 | 3.2 | 8.0 | 0.00 | 0.05 | 0.05 | 80 | 1010.9 |
| 20260510044519 | 23 | 135 | 4.8 | 8.0 | 0.00 | 0.05 | 0.05 | 80 | 1010.8 |
| 20260510043021 | 23 | 150 | 0.0 | 4.8 | 0.00 | 0.05 | 0.05 | 80 | 1010.8 |
| 20260510041519 | 23 | 169 | 1.6 | 4.8 | 0.00 | 0.05 | 0.05 | 80 | 1010.8 |
| 20260510040017 | 23 | 171 | 1.6 | 6.4 | 0.00 | 0.05 | 0.05 | 79 | 1010.7 |
| 20260510034515 | 23 | 143 | 3.2 | 6.4 | 0.00 | 0.05 | 0.05 | 79 | 1010.6 |
| 20260510033014 | 24 | 150 | 3.2 | 6.4 | 0.00 | 0.05 | 0.05 | 79 | 1010.5 |
| 20260510031516 | 24 | 153 | 1.6 | 6.4 | 0.00 | 0.05 | 0.05 | 79 | 1010.3 |
| 20260510030013 | 24 | 159 | 0.0 | 6.4 | 0.00 | 0.05 | 0.05 | 79 | 1010.2 |
| 20260510024516 | 25 | 174 | 6.4 | 14.5 | 0.00 | 0.05 | 0.05 | 78 | 1009.9 |
| 20260510023011 | 25 | 129 | 8.0 | 16.1 | 0.00 | 0.05 | 0.05 | 76 | 1009.8 |
| 20260510021514 | 25 | 119 | 4.8 | 11.3 | 0.00 | 0.05 | 0.05 | 74 | 1009.7 |
| 20260510020110 | 25 | 126 | 4.8 | 8.0 | 0.00 | 0.05 | 0.05 | 69 | 1009.5 |
| 20260510014509 | 26 | 155 | 3.2 | 6.4 | 0.00 | 0.05 | 0.05 | 66 | 1009.3 |
| 20260510013008 | 26 | 148 | 4.8 | 6.4 | 0.00 | 0.05 | 0.05 | 62 | 1009.2 |
| 20260510011510 | 26 | 136 | 3.2 | 8.0 | 0.00 | 0.05 | 0.05 | 59 | 1009.1 |
| 20260510010007 | 27 | 131 | 3.2 | 9.7 | 0.00 | 0.05 | 0.05 | 57 | 1008.9 |
| 20260510004507 | 27 | 122 | 3.2 | 8.0 | 0.00 | 0.05 | 0.05 | 55 | 1008.9 |
| 20260510003018 | 28 | 105 | 4.8 | 9.7 | 0.00 | 0.05 | 0.05 | 52 | 1008.8 |
| 20260510001505 | 28 | 134 | 8.0 | 14.5 | 0.00 | 0.05 | 0.05 | 48 | 1008.7 |
| 20260510000005 | 28 | 141 | 8.0 | 14.5 | 0.00 | 0.05 | 0.05 | 47 | 1008.6 |
| 20260509234503 | 29 | 91 | 6.4 | 12.9 | 0.00 | 0.05 | 0.05 | 42 | 1008.4 |
| 20260509233001 | 29 | 122 | 4.8 | 12.9 | 0.00 | 0.05 | 0.05 | 44 | 1008.3 |
| 20260509231600 | 29 | 146 | 9.7 | 19.3 | 0.00 | 0.05 | 0.05 | 48 | 1008.4 |
| 20260509230100 | 30 | 149 | 6.4 | 12.9 | 0.00 | 0.05 | 0.05 | 48 | 1008.2 |
| 20260509224559 | 30 | 113 | 4.8 | 14.5 | 0.00 | 0.05 | 0.05 | 53 | 1008.2 |
| 20260509223059 | 30 | 108 | 6.4 | 12.9 | 0.00 | 0.05 | 0.05 | 55 | 1008.2 |
| 20260509221558 | 30 | 94 | 4.8 | 11.3 | 0.00 | 0.05 | 0.05 | 54 | 1008.1 |
| 20260509220107 | 30 | 86 | 4.8 | 9.7 | 0.00 | 0.05 | 0.05 | 55 | 1008.1 |
| 20260509214556 | 28 | 192 | 0.0 | 11.3 | 0.00 | 0.05 | 0.05 | 58 | 1008.3 |
| 20260509213053 | 27 | 178 | 3.2 | 16.1 | 0.00 | 0.05 | 0.05 | 61 | 1008.5 |
| 20260509211554 | 26 | 142 | 14.5 | 27.4 | 0.00 | 0.05 | 0.05 | 55 | 1008.9 |
| 20260509210050 | 26 | 105 | 14.5 | 29.0 | 0.00 | 0.05 | 0.05 | 56 | 1009.0 |
| 20260509204549 | 28 | 101 | 12.9 | 29.0 | 0.00 | 0.05 | 0.05 | 53 | 1009.1 |
| 20260509203147 | 31 | 299 | 3.2 | 14.5 | 0.00 | 0.05 | 0.05 | 48 | 1008.9 |
| 20260509201546 | 31 | 219 | 9.7 | 14.5 | 0.00 | 0.05 | 0.05 | 48 | 1009.0 |
| 20260509200054 | 32 | 302 | 3.2 | 8.0 | 0.00 | 0.05 | 0.05 | 50 | 1009.3 |
| 20260509194541 | 31 | 258 | 4.8 | 16.1 | 0.00 | 0.05 | 0.05 | 52 | 1009.3 |
| 20260509193039 | 30 | 237 | 4.8 | 8.0 | 0.00 | 0.05 | 0.05 | 55 | 1009.7 |
| 20260509191544 | 30 | 351 | 4.8 | 14.5 | 0.00 | 0.05 | 0.05 | 54 | 1009.7 |
| 20260509190034 | 30 | 306 | 9.7 | 16.1 | 0.00 | 0.05 | 0.05 | 55 | 1010.0 |
| 20260509184534 | 29 | 347 | 4.8 | 9.7 | 0.00 | 0.05 | 0.05 | 60 | 1010.2 |
| 20260509183031 | 28 | 299 | 4.8 | 11.3 | 0.00 | 0.05 | 0.05 | 60 | 1010.6 |
| 20260509181531 | 30 | 264 | 4.8 | 12.9 | 0.00 | 0.05 | 0.05 | 61 | 1010.7 |
| 20260509180026 | 28 | 153 | 0.0 | 9.7 | 0.00 | 0.05 | 0.05 | 66 | 1010.8 |
| 20260509174526 | 28 | 319 | 4.8 | 11.3 | 0.00 | 0.05 | 0.05 | 65 | 1011.2 |
| 20260509173025 | 27 | 251 | 4.8 | 11.3 | 0.00 | 0.05 | 0.05 | 68 | 1011.3 |
| 20260509171523 | 28 | 221 | 3.2 | 12.9 | 0.00 | 0.05 | 0.05 | 69 | 1011.2 |
| 20260509170021 | 27 | 268 | 3.2 | 8.0 | 0.00 | 0.05 | 0.05 | 72 | 1011.4 |
| 20260509164519 | 26 | 253 | 6.4 | 12.9 | 0.00 | 0.05 | 0.05 | 74 | 1011.4 |
| 20260509163014 | 26 | 183 | 4.8 | 16.1 | 0.00 | 0.05 | 0.05 | 78 | 1011.4 |
| 20260509161512 | 25 | 213 | 4.8 | 12.9 | 0.00 | 0.05 | 0.05 | 81 | 1011.4 |
| 20260509160012 | 25 | 285 | 3.2 | 9.7 | 0.00 | 0.05 | 0.05 | 85 | 1011.3 |
| 20260509154513 | 23 | 248 | 3.2 | 11.3 | 0.00 | 0.05 | 0.05 | 92 | 1011.5 |
| 20260509153105 | 22 | 179 | 4.8 | 12.9 | 0.00 | 0.05 | 0.05 | 96 | 1011.7 |
| 20260509151608 | 22 | 180 | 6.4 | 16.1 | 0.00 | 0.05 | 0.05 | 96 | 1011.8 |
| 20260509150056 | 22 | 165 | 6.4 | 11.3 | 0.00 | 0.05 | 0.05 | 96 | 1011.8 |
| 20260509144554 | 21 | 167 | 4.8 | 9.7 | 0.00 | 0.05 | 0.05 | 96 | 1011.3 |
| 20260509143054 | 21 | 210 | 4.8 | 11.3 | 0.00 | 0.05 | 0.05 | 96 | 1011.2 |
| 20260509141553 | 21 | 139 | 8.0 | 16.1 | 0.00 | 0.05 | 0.05 | 96 | 1011.0 |
| 20260509140052 | 21 | 139 | 3.2 | 8.0 | 0.00 | 0.05 | 0.05 | 96 | 1011.0 |
| 20260509134551 | 21 | 336 | 0.0 | 6.4 | 0.00 | 0.05 | 0.05 | 96 | 1011.2 |
| 20260509133050 | 21 | 329 | 0.0 | 4.8 | 0.00 | 0.05 | 0.05 | 96 | 1011.5 |
| 20260509131551 | 21 | 54 | 0.0 | 6.4 | 0.00 | 0.05 | 0.05 | 96 | 1011.5 |
| 20260509130059 | 21 | 316 | 3.2 | 8.0 | 0.00 | 0.05 | 0.05 | 96 | 1010.9 |
| 20260509124549 | 21 | 37 | 3.2 | 8.0 | 0.03 | 0.05 | 0.05 | 96 | 1010.9 |
| 20260509123051 | 21 | 322 | 4.8 | 9.7 | 0.03 | 0.05 | 0.05 | 96 | 1010.9 |
| 20260509121547 | 21 | 75 | 0.0 | 3.2 | 0.03 | 0.05 | 0.05 | 96 | 1010.9 |